DLH5248 EDDM-LOWI
Flight info
| Callsign | DLH5248 |
|---|---|
| Flight time | N/A |
| Altitude | 15000 |
| Route | TURBU7W TURBU Y107 RTT RTT1B |
| Aircraft | A20N/M-SDE2E3FGHIRWXY/LB1 |
Departure
| Time | 2026-05-06 18:42 |
|---|---|
| Airport | Munich Airport (EDDM) |
Arrival
| Time | N/A |
|---|---|
| Airport | Innsbruck Airport (LOWI) |
| Time | Latitude | Longitude | Altitude | Speed | Heading |
|---|---|---|---|---|---|
| 2026-05-06 18:15 | 48.35159 | 11.79337 | 1467 ft | 0 kts | 263° |
| 2026-05-06 18:29 | 48.35159 | 11.79338 | 1467 ft | 0 kts | 263° |
| 2026-05-06 18:29 | 48.35160 | 11.79347 | 1458 ft | 1 kts | 263° |
| 2026-05-06 18:29 | 48.35161 | 11.79357 | 1459 ft | 1 kts | 263° |
| 2026-05-06 18:30 | 48.35162 | 11.79369 | 1465 ft | 1 kts | 263° |
| 2026-05-06 18:30 | 48.35163 | 11.79381 | 1463 ft | 1 kts | 263° |
| 2026-05-06 18:30 | 48.35164 | 11.79394 | 1461 ft | 1 kts | 263° |
| 2026-05-06 18:30 | 48.35164 | 11.79406 | 1462 ft | 1 kts | 263° |
| 2026-05-06 18:31 | 48.35165 | 11.79419 | 1459 ft | 1 kts | 263° |
| 2026-05-06 18:31 | 48.35166 | 11.79431 | 1461 ft | 1 kts | 261° |
| 2026-05-06 18:31 | 48.35168 | 11.79444 | 1459 ft | 1 kts | 256° |
| 2026-05-06 18:31 | 48.35170 | 11.79459 | 1457 ft | 2 kts | 250° |
| 2026-05-06 18:32 | 48.35176 | 11.79481 | 1460 ft | 3 kts | 239° |
| 2026-05-06 18:32 | 48.35189 | 11.79499 | 1457 ft | 0 kts | 173° |
| 2026-05-06 18:34 | 48.35188 | 11.79499 | 1457 ft | 1 kts | 173° |
| 2026-05-06 18:35 | 48.35161 | 11.79504 | 1462 ft | 4 kts | 173° |
| 2026-05-06 18:35 | 48.35129 | 11.79510 | 1459 ft | 9 kts | 173° |
| 2026-05-06 18:35 | 48.35097 | 11.79515 | 1467 ft | 3 kts | 174° |
| 2026-05-06 18:35 | 48.35044 | 11.79524 | 1465 ft | 12 kts | 173° |
| 2026-05-06 18:36 | 48.34991 | 11.79571 | 1462 ft | 4 kts | 115° |
| 2026-05-06 18:36 | 48.34986 | 11.79597 | 1462 ft | 0 kts | 106° |
| 2026-05-06 18:37 | 48.34984 | 11.79608 | 1459 ft | 5 kts | 104° |
| 2026-05-06 18:38 | 48.34945 | 11.79676 | 1464 ft | 13 kts | 167° |
| 2026-05-06 18:38 | 48.34870 | 11.79690 | 1459 ft | 11 kts | 173° |
| 2026-05-06 18:38 | 48.34815 | 11.79721 | 1466 ft | 10 kts | 130° |
| 2026-05-06 18:38 | 48.34811 | 11.79843 | 1463 ft | 14 kts | 85° |
| 2026-05-06 18:39 | 48.34823 | 11.80002 | 1467 ft | 10 kts | 82° |
| 2026-05-06 18:39 | 48.34823 | 11.80125 | 1460 ft | 14 kts | 108° |
| 2026-05-06 18:39 | 48.34765 | 11.80227 | 1467 ft | 4 kts | 148° |
| 2026-05-06 18:40 | 48.34635 | 11.80258 | 1463 ft | 15 kts | 173° |
| 2026-05-06 18:40 | 48.34575 | 11.80270 | 1463 ft | 0 kts | 172° |
| 2026-05-06 18:40 | 48.34549 | 11.80275 | 1465 ft | 11 kts | 173° |
| 2026-05-06 18:41 | 48.34458 | 11.80164 | 1465 ft | 26 kts | 257° |
| 2026-05-06 18:41 | 48.34423 | 11.79693 | 1463 ft | 75 kts | 263° |
| 2026-05-06 18:41 | 48.34340 | 11.78630 | 1467 ft | 126 kts | 263° |
| 2026-05-06 18:41 | 48.34232 | 11.77126 | 1565 ft | 156 kts | 264° |
| 2026-05-06 18:42 | 48.34108 | 11.75474 | 2038 ft | 162 kts | 263° |
| 2026-05-06 18:42 | 48.33905 | 11.73810 | 2712 ft | 159 kts | 253° |
| 2026-05-06 18:42 | 48.33270 | 11.72493 | 3431 ft | 159 kts | 224° |
| 2026-05-06 18:42 | 48.32299 | 11.71701 | 4086 ft | 160 kts | 211° |
| 2026-05-06 18:43 | 48.31108 | 11.71169 | 4479 ft | 198 kts | 198° |
| 2026-05-06 18:43 | 48.29607 | 11.70972 | 5041 ft | 237 kts | 186° |
| 2026-05-06 18:43 | 48.27857 | 11.71288 | 5722 ft | 269 kts | 169° |
| 2026-05-06 18:43 | 48.26113 | 11.72550 | 6446 ft | 298 kts | 151° |
| 2026-05-06 18:44 | 48.24327 | 11.74533 | 6732 ft | 327 kts | 146° |
| 2026-05-06 18:44 | 48.22564 | 11.76639 | 6824 ft | 328 kts | 146° |
| 2026-05-06 18:44 | 48.20747 | 11.78719 | 6833 ft | 329 kts | 148° |
| 2026-05-06 18:44 | 48.18916 | 11.80660 | 7250 ft | 311 kts | 152° |
| 2026-05-06 18:45 | 48.17073 | 11.82101 | 7828 ft | 288 kts | 162° |
| 2026-05-06 18:45 | 48.15225 | 11.83078 | 8504 ft | 280 kts | 167° |
| 2026-05-06 18:45 | 48.13381 | 11.83982 | 9663 ft | 275 kts | 166° |
| 2026-05-06 18:45 | 48.11536 | 11.84889 | 10475 ft | 287 kts | 166° |
| 2026-05-06 18:46 | 48.09585 | 11.85844 | 10835 ft | 310 kts | 166° |
| 2026-05-06 18:46 | 48.07463 | 11.86889 | 11276 ft | 329 kts | 165° |
| 2026-05-06 18:46 | 48.05276 | 11.87978 | 12138 ft | 332 kts | 165° |
| 2026-05-06 18:46 | 48.03075 | 11.89076 | 13039 ft | 336 kts | 165° |
| 2026-05-06 18:47 | 48.00845 | 11.90186 | 13865 ft | 341 kts | 165° |
| 2026-05-06 18:47 | 47.98584 | 11.91308 | 14484 ft | 344 kts | 165° |
| 2026-05-06 18:47 | 47.96300 | 11.92438 | 14757 ft | 347 kts | 165° |
| 2026-05-06 18:47 | 47.94007 | 11.93572 | 14844 ft | 347 kts | 165° |
| 2026-05-06 18:48 | 47.91673 | 11.94446 | 14851 ft | 343 kts | 173° |
| 2026-05-06 18:48 | 47.89340 | 11.94827 | 14854 ft | 341 kts | 181° |
| 2026-05-06 18:48 | 47.86979 | 11.94807 | 14854 ft | 339 kts | 184° |
| 2026-05-06 18:48 | 47.84614 | 11.94744 | 14851 ft | 339 kts | 184° |
| 2026-05-06 18:49 | 47.82255 | 11.94693 | 14852 ft | 339 kts | 184° |
| 2026-05-06 18:49 | 47.79894 | 11.94647 | 14842 ft | 338 kts | 184° |
| 2026-05-06 18:49 | 47.77534 | 11.94605 | 14671 ft | 339 kts | 184° |
| 2026-05-06 18:49 | 47.75184 | 11.94562 | 14424 ft | 336 kts | 184° |
| 2026-05-06 18:50 | 47.72857 | 11.94519 | 14183 ft | 334 kts | 184° |
| 2026-05-06 18:50 | 47.70531 | 11.94478 | 13941 ft | 333 kts | 184° |
| 2026-05-06 18:50 | 47.68220 | 11.94442 | 13679 ft | 332 kts | 184° |
| 2026-05-06 18:50 | 47.65902 | 11.94410 | 13419 ft | 332 kts | 184° |
| 2026-05-06 18:51 | 47.63612 | 11.94366 | 13178 ft | 332 kts | 184° |
| 2026-05-06 18:51 | 47.61288 | 11.94323 | 12918 ft | 325 kts | 184° |
| 2026-05-06 18:51 | 47.59031 | 11.94252 | 12836 ft | 328 kts | 188° |
| 2026-05-06 18:51 | 47.56861 | 11.93333 | 12828 ft | 324 kts | 209° |
| 2026-05-06 18:52 | 47.55144 | 11.91288 | 12837 ft | 322 kts | 230° |
| 2026-05-06 18:52 | 47.54084 | 11.88356 | 12818 ft | 325 kts | 252° |
| 2026-05-06 18:52 | 47.53874 | 11.85097 | 12839 ft | 314 kts | 269° |
| 2026-05-06 18:52 | 47.53970 | 11.81949 | 12818 ft | 297 kts | 269° |
| 2026-05-06 18:53 | 47.54082 | 11.78984 | 12839 ft | 283 kts | 269° |
| 2026-05-06 18:53 | 47.54182 | 11.76070 | 12841 ft | 286 kts | 268° |
| 2026-05-06 18:53 | 47.54164 | 11.73137 | 12843 ft | 282 kts | 264° |
| 2026-05-06 18:53 | 47.54079 | 11.70193 | 12828 ft | 287 kts | 264° |
| 2026-05-06 18:54 | 47.54000 | 11.67287 | 12820 ft | 285 kts | 264° |
| 2026-05-06 18:54 | 47.53922 | 11.64359 | 12801 ft | 283 kts | 264° |
| 2026-05-06 18:54 | 47.53829 | 11.61431 | 12834 ft | 289 kts | 264° |
| 2026-05-06 18:54 | 47.53741 | 11.58468 | 12817 ft | 285 kts | 264° |
| 2026-05-06 18:55 | 47.53656 | 11.55539 | 12816 ft | 284 kts | 264° |
| 2026-05-06 18:55 | 47.53573 | 11.52612 | 12813 ft | 284 kts | 264° |
| 2026-05-06 18:55 | 47.53486 | 11.49685 | 12820 ft | 286 kts | 264° |
| 2026-05-06 18:55 | 47.53394 | 11.46789 | 12828 ft | 285 kts | 264° |
| 2026-05-06 18:56 | 47.53307 | 11.43842 | 12818 ft | 286 kts | 264° |
| 2026-05-06 18:56 | 47.53218 | 11.40914 | 12823 ft | 285 kts | 264° |
| 2026-05-06 18:56 | 47.53131 | 11.37982 | 12821 ft | 285 kts | 264° |
| 2026-05-06 18:56 | 47.53041 | 11.35041 | 12821 ft | 287 kts | 264° |
| 2026-05-06 18:57 | 47.52956 | 11.32075 | 12824 ft | 288 kts | 264° |
| 2026-05-06 18:57 | 47.52872 | 11.29128 | 12821 ft | 286 kts | 264° |
| 2026-05-06 18:57 | 47.52785 | 11.26235 | 12769 ft | 284 kts | 264° |
| 2026-05-06 18:57 | 47.52697 | 11.23311 | 12513 ft | 284 kts | 264° |
| 2026-05-06 18:58 | 47.52606 | 11.20388 | 12099 ft | 284 kts | 264° |
| 2026-05-06 18:58 | 47.52508 | 11.17462 | 11714 ft | 283 kts | 264° |
| 2026-05-06 18:58 | 47.52387 | 11.14574 | 11579 ft | 283 kts | 260° |
| 2026-05-06 18:58 | 47.52016 | 11.11707 | 11539 ft | 283 kts | 254° |
| 2026-05-06 18:59 | 47.51563 | 11.08886 | 11527 ft | 282 kts | 254° |
| 2026-05-06 18:59 | 47.51113 | 11.06099 | 11548 ft | 282 kts | 254° |
| 2026-05-06 18:59 | 47.50653 | 11.03259 | 11547 ft | 282 kts | 254° |
| 2026-05-06 18:59 | 47.50194 | 11.00427 | 11549 ft | 282 kts | 254° |
| 2026-05-06 19:00 | 47.49739 | 10.97606 | 11543 ft | 283 kts | 254° |
| 2026-05-06 19:00 | 47.49282 | 10.94782 | 11543 ft | 282 kts | 254° |
| 2026-05-06 19:00 | 47.48826 | 10.91959 | 11546 ft | 282 kts | 254° |
| 2026-05-06 19:00 | 47.48365 | 10.89124 | 11562 ft | 283 kts | 253° |
| 2026-05-06 19:01 | 47.47915 | 10.86294 | 11550 ft | 283 kts | 254° |
| 2026-05-06 19:01 | 47.47476 | 10.83505 | 11527 ft | 280 kts | 254° |
| 2026-05-06 19:01 | 47.47030 | 10.80715 | 11348 ft | 276 kts | 254° |
| 2026-05-06 19:01 | 47.46608 | 10.78009 | 11263 ft | 265 kts | 254° |
| 2026-05-06 19:02 | 47.46202 | 10.75411 | 11183 ft | 254 kts | 253° |
| 2026-05-06 19:02 | 47.45814 | 10.72901 | 10982 ft | 248 kts | 254° |
| 2026-05-06 19:02 | 47.45436 | 10.70421 | 10714 ft | 243 kts | 253° |
| 2026-05-06 19:02 | 47.45057 | 10.67953 | 10659 ft | 251 kts | 255° |
| 2026-05-06 19:03 | 47.44487 | 10.65568 | 10653 ft | 242 kts | 233° |
| 2026-05-06 19:03 | 47.43245 | 10.63949 | 10657 ft | 240 kts | 204° |
| 2026-05-06 19:03 | 47.41637 | 10.63502 | 10657 ft | 243 kts | 175° |
| 2026-05-06 19:03 | 47.40034 | 10.64352 | 10644 ft | 250 kts | 146° |
| 2026-05-06 19:04 | 47.38800 | 10.66160 | 10647 ft | 252 kts | 135° |
| 2026-05-06 19:04 | 47.37613 | 10.68086 | 10653 ft | 252 kts | 136° |
| 2026-05-06 19:04 | 47.36404 | 10.69955 | 10632 ft | 250 kts | 137° |
| 2026-05-06 19:04 | 47.35173 | 10.71769 | 10635 ft | 250 kts | 138° |
| 2026-05-06 19:05 | 47.33926 | 10.73563 | 10634 ft | 251 kts | 139° |
| 2026-05-06 19:05 | 47.32681 | 10.75331 | 10632 ft | 251 kts | 139° |
| 2026-05-06 19:05 | 47.31431 | 10.77095 | 10641 ft | 248 kts | 140° |
| 2026-05-06 19:05 | 47.30195 | 10.78880 | 10645 ft | 249 kts | 133° |
| 2026-05-06 19:06 | 47.29418 | 10.81196 | 10631 ft | 260 kts | 104° |
| 2026-05-06 19:06 | 47.29347 | 10.83859 | 10581 ft | 259 kts | 89° |
| 2026-05-06 19:06 | 47.29523 | 10.86449 | 10511 ft | 249 kts | 86° |
| 2026-05-06 19:06 | 47.29724 | 10.88928 | 10387 ft | 237 kts | 87° |
| 2026-05-06 19:07 | 47.29885 | 10.91283 | 10302 ft | 225 kts | 88° |
| 2026-05-06 19:07 | 47.30007 | 10.93535 | 10120 ft | 217 kts | 90° |
| 2026-05-06 19:07 | 47.30102 | 10.95718 | 9862 ft | 215 kts | 90° |
| 2026-05-06 19:07 | 47.30187 | 10.97929 | 9578 ft | 213 kts | 90° |
| 2026-05-06 19:08 | 47.30266 | 11.00068 | 9247 ft | 211 kts | 91° |
| 2026-05-06 19:08 | 47.30338 | 11.02231 | 8900 ft | 210 kts | 90° |
| 2026-05-06 19:08 | 47.30409 | 11.04387 | 8535 ft | 211 kts | 89° |
| 2026-05-06 19:08 | 47.30485 | 11.06595 | 8005 ft | 222 kts | 89° |
| 2026-05-06 19:09 | 47.30393 | 11.08896 | 7564 ft | 223 kts | 105° |
| 2026-05-06 19:09 | 47.29864 | 11.10974 | 7430 ft | 211 kts | 115° |
| 2026-05-06 19:09 | 47.29289 | 11.12913 | 7298 ft | 202 kts | 114° |
| 2026-05-06 19:09 | 47.28759 | 11.14745 | 7150 ft | 193 kts | 114° |
| 2026-05-06 19:10 | 47.28231 | 11.16591 | 6783 ft | 192 kts | 113° |
| 2026-05-06 19:10 | 47.27714 | 11.18381 | 6285 ft | 195 kts | 114° |
| 2026-05-06 19:10 | 47.27129 | 11.20217 | 5690 ft | 199 kts | 116° |
| 2026-05-06 19:10 | 47.26527 | 11.22034 | 5236 ft | 196 kts | 115° |
| 2026-05-06 19:11 | 47.26017 | 11.23847 | 4865 ft | 184 kts | 111° |
| 2026-05-06 19:11 | 47.25681 | 11.25619 | 4415 ft | 178 kts | 103° |
| 2026-05-06 19:11 | 47.25501 | 11.27470 | 3733 ft | 188 kts | 94° |
| 2026-05-06 19:11 | 47.25527 | 11.29399 | 3172 ft | 189 kts | 83° |
| 2026-05-06 19:12 | 47.25712 | 11.31333 | 2586 ft | 190 kts | 82° |
| 2026-05-06 19:12 | 47.25910 | 11.33223 | 1993 ft | 187 kts | 90° |
| 2026-05-06 19:12 | 47.26074 | 11.34829 | 1900 ft | 108 kts | 83° |
| 2026-05-06 19:12 | 47.26133 | 11.35599 | 1902 ft | 52 kts | 83° |